• Join FlightAware (Why Join?)
  • Login
  • US Flag 
02:54AM EDT


 

Airport Tracker/Info


-or-


 

Live Flight TrackerFlight Track Log ✈ DAL6044 ✈ 22-Dec-2013 ✈ KDTW - KCLE

Flight Track Log - Related Links

Times and Time Zones

All times are in EST time to prevent confusion due to time zone crossing. See the DAL6044 flight status page for this flight to view local times or setup timezone preferences in your user account.

Time Position Orientation Groundspeed Altitude Reporting Facility
EST Latitude Longitude Course Direction KTS MPH feet Rate Location/Type
02:18PM 42.2008 -83.3522 87° East 151 174 1,400  Level Cleveland Center
02:18PM 42.1925 -83.3539 188° South 156 180 1,900 2,520 Climbing Cleveland Center
02:19PM 42.1439 -83.3583 184° South 182 209 4,500 2,340 Climbing Cleveland Center
02:20PM 42.1311 -83.3578 178° South 179 206 5,000 1,860 Climbing Cleveland Center
02:20PM 42.0964 -83.2953 127° Southeast 301 346 6,600 1,740 Climbing Cleveland Center
02:21PM 42.0605 -83.0642 99° East  Level Estimated
02:21PM 42.0911 -83.2861 128° Southeast 245 282 6,800  Level Cleveland Center
02:22PM 42.0654 -82.9464 87° East  Level FlightAware Approximate
02:22PM 42.0597 -83.1814 112° Southeast 289 333 9,300  Level Cleveland Center
02:23PM 42.0701 -82.8286 87° East  Level FlightAware Approximate
02:23PM 42.0656 -83.0553 86° East 339 390 10,100  Level Cleveland Center
02:24PM 42.0719 -82.9108 87° East 384 442 11,400 1,200 Climbing Cleveland Center
02:25PM 42.0786 -82.7611 87° East 400 460 12,600 780 Climbing Cleveland Center
02:26PM 42.0839 -82.5672 88° East 433 498 13,000 180 Climbing Cleveland Center
02:27PM 42.0369 -82.4219 113° Southeast 428 493 13,000  Level Cleveland Center
02:27PM 42.0189 -82.4100 154° Southeast 420 483 13,000  Level Cleveland Center
02:28PM 41.9497 -82.3222 137° Southeast 409 471 13,000  Level Cleveland Center
02:28PM 41.8983 -82.2653 140° Southeast 414 476 13,000 -300 Level Cleveland Center
02:29PM 41.8642 -82.2206 136° Southeast 410 472 12,700 -1,140 Descending Cleveland Center
02:29PM 41.8183 -82.1786 146° Southeast 397 457 12,000 -1,260 Descending Cleveland Center
02:30PM 41.7747 -82.1414 148° Southeast 388 447 11,400 -1,320 Descending Cleveland Center
02:30PM 41.7247 -82.1039 151° Southeast 353 406 10,600 -1,260 Descending Cleveland Center
02:31PM 41.6875 -82.0736 149° Southeast 354 407 10,100 -660 Descending Cleveland Center
02:31PM 41.6483 -82.0436 150° Southeast 345 397 10,000 -120 Descending Cleveland Center
02:32PM 41.6044 -82.0075 148° Southeast 347 399 10,000  Level Cleveland Center
02:32PM 41.5719 -81.9833 151° Southeast 295 339 10,000 -540 Level Cleveland Center
02:33PM 41.5397 -81.9567 148° Southeast 265 305 9,500 -1,200 Descending Cleveland Center
02:33PM 41.5258 -81.9169 115° Southeast 265 305 8,800 -1,500 Descending Cleveland Center
02:34PM 41.5383 -81.8414 78° East 289 333 8,000 -1,140 Descending Cleveland Center
02:34PM 41.5439 -81.8108 76° East 293 337 7,700 -1,020 Descending Cleveland Center
02:35PM 41.5725 -81.7483 59° Northeast 288 331 7,000 -780 Descending Cleveland Center
02:35PM 41.5867 -81.7339 37° Northeast 285 328 7,000 -300 Level Cleveland Center
02:36PM 41.6303 -81.6794 43° Northeast 279 321 6,700 -420 Descending Cleveland Center
02:36PM 41.6389 -81.6669 47° Northeast 256 295 6,600 -720 Descending Cleveland Center
02:37PM 41.6708 -81.6053 55° Northeast 255 293 6,000 -600 Descending Cleveland Center
02:37PM 41.6689 -81.5906 100° East 238 274 6,000 -720 Level Cleveland Center
02:38PM 41.6408 -81.5375 125° Southeast 223 257 5,300 -900 Descending Cleveland Center
02:38PM 41.6344 -81.5289 135° Southeast 198 228 5,100 -780 Descending Cleveland Center
02:39PM 41.6039 -81.5481 205° Southwest 171 197 4,500 -720 Descending Cleveland Center
02:39PM 41.6008 -81.5544 237° Southwest 132 152 4,400 -360 Descending Cleveland Center
02:41PM 41.5614 -81.6181 230° Southwest 148 170 4,000 -300 Descending Cleveland Center
02:41PM 41.5517 -81.6322 227° Southwest 147 169 3,900  Descending Cleveland Center
02:42PM 41.5367 -81.6589 233° Southwest 148 170 4,000 60 Climbing Cleveland Center
02:42PM 41.5247 -81.6747 225° Southwest 148 170 4,000 -300 Level Cleveland Center
02:43PM 41.5150 -81.6917 233° Southwest 149 171 3,800 -720 Descending Cleveland Center
02:43PM 41.4981 -81.7167 228° Southwest 148 170 3,300 -780 Descending Cleveland Center
02:43PM 41.4906 -81.7294 232° Southwest 148 170 3,100 -840 Descending Cleveland Center
02:44PM 41.4722 -81.7567 228° Southwest 145 167 2,500 -840 Descending Cleveland Center
02:44PM 41.4681 -81.7678 243° Southwest 128 147 2,300 -720 Descending Cleveland Center
02:45PM 41.4481 -81.7953 226° Southwest 125 144 1,800 -600 Descending Cleveland Center
02:45PM 41.4442 -81.8003 224° Southwest 115 132 1,700 -720 Descending Cleveland Center
02:46PM 41.4269 -81.8303 233° Southwest 121 139 1,100 -720 Descending Cleveland Center
02:46PM 41.4219 -81.8356 218° Southwest 126 145 1,000 -720 Descending Cleveland Center